createdAt,value
2019-02-02T00:00:32.034Z,4.31
2019-02-02T00:01:32.265Z,4.32
2019-02-02T00:02:31.757Z,4.28
2019-02-02T00:03:32.012Z,4.24
2019-02-02T00:04:32.257Z,4.23
2019-02-02T00:05:32.224Z,4.26
2019-02-02T00:06:32.217Z,4.26
2019-02-02T00:07:31.959Z,4.26
2019-02-02T00:08:32.204Z,4.19
2019-02-02T00:09:32.333Z,4.28
2019-02-02T00:10:32.162Z,4.16
2019-02-02T00:11:32.174Z,4.26
2019-02-02T00:12:32.229Z,4.22
2019-02-02T00:13:31.650Z,4.26
2019-02-02T00:14:32.162Z,4.26
2019-02-02T00:15:31.881Z,4.3
2019-02-02T00:16:31.880Z,4.28
2019-02-02T00:17:31.877Z,4.2
2019-02-02T00:18:31.850Z,4.3
2019-02-02T00:19:31.851Z,4.28
2019-02-02T00:20:32.081Z,4.34
2019-02-02T00:21:32.090Z,4.24
2019-02-02T00:22:31.847Z,4.28
2019-02-02T00:23:32.051Z,4.26
2019-02-02T00:24:31.798Z,4.28
2019-02-02T00:25:32.135Z,4.24
2019-02-02T00:26:31.783Z,4.24
2019-02-02T00:27:43.497Z,4.32
2019-02-02T00:28:31.500Z,4.26
2019-02-02T00:29:31.991Z,4.32
2019-02-02T00:30:32.001Z,4.26
2019-02-02T00:31:31.733Z,4.2
2019-02-02T00:32:31.968Z,4.19
2019-02-02T00:33:31.479Z,4.2
2019-02-02T00:34:31.440Z,4.28
2019-02-02T00:35:31.681Z,4.22
2019-02-02T00:36:31.674Z,4.23
2019-02-02T00:37:31.912Z,4.28
2019-02-02T00:38:31.904Z,4.3
2019-02-02T00:39:31.897Z,4.32
2019-02-02T00:40:31.879Z,4.38
2019-02-02T00:41:31.637Z,4.38
2019-02-02T00:42:31.622Z,4.31
2019-02-02T00:43:31.856Z,4.32
2019-02-02T00:44:31.609Z,4.34
2019-02-02T00:45:31.947Z,4.3
2019-02-02T00:46:31.585Z,4.37
2019-02-02T00:47:31.560Z,4.31
2019-02-02T00:48:31.799Z,4.35
2019-02-02T00:49:31.354Z,4.38
2019-02-02T00:50:31.543Z,4.31
2019-02-02T00:51:31.526Z,4.38
2019-02-02T00:52:31.552Z,4.37
2019-02-02T00:53:31.521Z,4.37
2019-02-02T00:54:31.245Z,4.37
2019-02-02T00:55:31.742Z,4.38
2019-02-02T00:56:31.493Z,4.34
2019-02-02T00:57:31.717Z,4.35
2019-02-02T00:58:31.480Z,4.35
2019-02-02T00:59:31.459Z,4.26
2019-02-02T01:00:31.469Z,4.26
2019-02-02T01:01:31.703Z,4.3
2019-02-02T01:02:31.560Z,4.23
2019-02-02T01:03:31.443Z,4.31
2019-02-02T01:04:31.446Z,4.28
2019-02-02T01:05:31.400Z,4.34
2019-02-02T01:06:31.413Z,4.22
2019-02-02T01:07:31.373Z,4.28
2019-02-02T01:08:31.374Z,4.24
2019-02-02T01:09:31.394Z,4.23
2019-02-02T01:10:31.359Z,4.23
2019-02-02T01:11:31.710Z,4.28
2019-02-02T01:12:31.590Z,4.34
2019-02-02T01:13:31.563Z,4.37
2019-02-02T01:14:31.298Z,4.32
2019-02-02T01:15:31.302Z,4.34
2019-02-02T01:16:31.110Z,4.37
2019-02-02T01:17:31.537Z,4.28
2019-02-02T01:18:31.575Z,4.22
2019-02-02T01:19:31.563Z,4.2
2019-02-02T01:20:31.309Z,4.22
2019-02-02T01:21:31.015Z,4.3
2019-02-02T01:22:31.246Z,4.28
2019-02-02T01:23:31.589Z,4.28
2019-02-02T01:24:31.002Z,4.28
2019-02-02T01:25:31.575Z,4.28
2019-02-02T01:26:31.457Z,4.3
2019-02-02T01:27:31.430Z,4.3
2019-02-02T01:28:31.206Z,4.32
2019-02-02T01:29:31.264Z,4.19
2019-02-02T01:30:31.430Z,4.19
2019-02-02T01:31:31.184Z,4.04
2019-02-02T01:32:31.133Z,4.17
2019-02-02T01:33:31.121Z,4.06
2019-02-02T01:34:31.113Z,4.12
2019-02-02T01:35:31.106Z,4.04
2019-02-02T01:36:31.358Z,4.04
2019-02-02T01:37:31.339Z,4.1
2019-02-02T01:38:31.330Z,3.98
2019-02-02T01:39:31.067Z,3.94
2019-02-02T01:40:31.053Z,3.88
2019-02-02T01:41:31.309Z,3.91
2019-02-02T01:42:31.056Z,3.86
2019-02-02T01:43:31.297Z,3.86
2019-02-02T01:44:31.272Z,3.86
2019-02-02T01:45:31.259Z,3.83
2019-02-02T01:46:31.009Z,3.94
2019-02-02T01:47:31.238Z,3.8
2019-02-02T01:48:30.971Z,3.77
2019-02-02T01:49:30.721Z,3.88
2019-02-02T01:50:30.828Z,3.69
2019-02-02T01:51:31.190Z,3.76
2019-02-02T01:52:30.933Z,3.7
2019-02-02T01:53:30.940Z,3.68
2019-02-02T01:54:31.167Z,3.63
2019-02-02T01:55:30.665Z,3.63
2019-02-02T01:56:30.660Z,3.6
2019-02-02T01:57:31.141Z,3.47
2019-02-02T01:58:31.131Z,3.48
2019-02-02T01:59:31.106Z,3.53
2019-02-02T02:00:30.608Z,3.55
2019-02-02T02:01:31.104Z,3.58
2019-02-02T02:02:31.085Z,3.5
2019-02-02T02:03:30.840Z,3.63
2019-02-02T02:04:31.067Z,3.65
2019-02-02T02:05:31.088Z,3.56
2019-02-02T02:06:30.803Z,3.58
2019-02-02T02:07:30.827Z,3.6
2019-02-02T02:08:31.018Z,3.59
2019-02-02T02:09:30.759Z,3.62
2019-02-02T02:10:30.750Z,3.53
2019-02-02T02:11:30.746Z,3.63
2019-02-02T02:12:30.735Z,3.65
2019-02-02T02:13:30.727Z,3.68
2019-02-02T02:14:30.712Z,3.74
2019-02-02T02:15:30.713Z,3.8
2019-02-02T02:16:30.956Z,3.81
2019-02-02T02:17:30.928Z,3.91
2019-02-02T02:18:30.678Z,3.84
2019-02-02T02:19:30.429Z,3.86
2019-02-02T02:20:30.654Z,3.8
2019-02-02T02:21:30.920Z,3.84
2019-02-02T02:22:40.814Z,3.84
2019-02-02T02:23:30.634Z,3.88
2019-02-02T02:24:30.884Z,3.86
2019-02-02T02:25:30.607Z,3.81
2019-02-02T02:26:30.881Z,3.81
2019-02-02T02:27:30.331Z,3.86
2019-02-02T02:28:33.155Z,3.91
2019-02-02T02:29:30.571Z,3.88
2019-02-02T02:30:30.820Z,3.84
2019-02-02T02:31:30.797Z,3.86
2019-02-02T02:32:30.787Z,3.87
2019-02-02T02:33:30.772Z,3.87
2019-02-02T02:34:30.796Z,3.95
2019-02-02T02:35:30.779Z,3.96
2019-02-02T02:36:30.750Z,3.88
2019-02-02T02:37:30.736Z,3.83
2019-02-02T02:38:30.491Z,3.83
2019-02-02T02:39:30.503Z,3.78
2019-02-02T02:40:30.693Z,3.78
2019-02-02T02:41:30.694Z,3.69
2019-02-02T02:42:30.682Z,3.63
2019-02-02T02:43:30.480Z,3.7
2019-02-02T02:44:30.443Z,3.77
2019-02-02T02:45:30.661Z,3.73
2019-02-02T02:46:30.446Z,3.77
2019-02-02T02:47:30.446Z,3.74
2019-02-02T02:48:30.368Z,3.8
2019-02-02T02:49:30.406Z,3.83
2019-02-02T02:50:30.602Z,3.81
2019-02-02T02:51:30.594Z,3.83
2019-02-02T02:52:30.574Z,3.92
2019-02-02T02:53:30.059Z,3.84
2019-02-02T02:54:30.315Z,3.83
2019-02-02T02:55:30.555Z,3.87
2019-02-02T02:56:30.698Z,3.88
2019-02-02T02:57:30.318Z,3.78
2019-02-02T02:58:43.369Z,3.78
2019-02-02T02:59:30.260Z,3.73
2019-02-02T03:00:30.517Z,3.76
2019-02-02T03:01:30.479Z,3.68
2019-02-02T03:02:30.480Z,3.69
2019-02-02T03:03:30.470Z,3.7
2019-02-02T03:04:30.501Z,3.73
2019-02-02T03:05:30.474Z,3.87
2019-02-02T03:06:30.182Z,3.87
2019-02-02T03:07:30.421Z,3.88
2019-02-02T03:08:30.187Z,3.84
2019-02-02T03:09:30.191Z,3.91
2019-02-02T03:10:30.414Z,3.95
2019-02-02T03:11:30.406Z,3.94
2019-02-02T03:12:30.116Z,3.87
2019-02-02T03:13:30.382Z,3.87
2019-02-02T03:14:30.369Z,3.88
2019-02-02T03:15:30.105Z,3.8
2019-02-02T03:16:30.323Z,3.8
2019-02-02T03:17:30.330Z,3.81
2019-02-02T03:18:30.070Z,3.83
2019-02-02T03:19:30.351Z,3.65
2019-02-02T03:20:30.294Z,3.7
2019-02-02T03:21:30.051Z,3.62
2019-02-02T03:22:30.027Z,3.63
2019-02-02T03:23:29.809Z,3.65
2019-02-02T03:24:30.244Z,3.6
2019-02-02T03:25:30.412Z,3.58
2019-02-02T03:26:29.987Z,3.58
2019-02-02T03:27:30.229Z,3.59
2019-02-02T03:28:30.199Z,3.58
2019-02-02T03:29:29.949Z,3.6
2019-02-02T03:30:30.319Z,3.59
2019-02-02T03:31:30.197Z,3.56
2019-02-02T03:32:30.162Z,3.56
2019-02-02T03:33:30.160Z,3.59
2019-02-02T03:34:30.161Z,3.63
2019-02-02T03:35:30.146Z,3.59
2019-02-02T03:36:30.121Z,3.63
2019-02-02T03:37:29.933Z,3.66
2019-02-02T03:38:30.087Z,3.65
2019-02-02T03:39:29.593Z,3.58
2019-02-02T03:40:30.085Z,3.6
2019-02-02T03:41:30.059Z,3.62
2019-02-02T03:42:30.061Z,3.6
2019-02-02T03:43:29.799Z,3.5
2019-02-02T03:44:30.053Z,3.56
2019-02-02T03:45:29.771Z,3.51
2019-02-02T03:46:29.878Z,3.53
2019-02-02T03:47:30.002Z,3.47
2019-02-02T03:48:30.014Z,3.55
2019-02-02T03:49:29.740Z,3.42
2019-02-02T03:50:29.716Z,3.45
2019-02-02T03:51:29.704Z,3.4
2019-02-02T03:52:29.948Z,3.41
2019-02-02T03:53:29.689Z,3.37
2019-02-02T03:54:29.671Z,3.42
2019-02-02T03:55:29.668Z,3.36
2019-02-02T03:56:29.917Z,3.47
2019-02-02T03:57:29.914Z,3.48
2019-02-02T03:58:29.630Z,3.53
2019-02-02T03:59:29.406Z,3.51
2019-02-02T04:00:29.626Z,3.65
2019-02-02T04:01:32.566Z,3.59
2019-02-02T04:02:29.583Z,3.58
2019-02-02T04:03:29.824Z,3.6
2019-02-02T04:04:29.865Z,3.59
2019-02-02T04:05:29.817Z,3.55
2019-02-02T04:06:29.543Z,3.37
2019-02-02T04:07:29.555Z,3.41
2019-02-02T04:08:29.520Z,3.44
2019-02-02T04:09:29.313Z,3.4
2019-02-02T04:10:29.762Z,3.42
2019-02-02T04:11:29.487Z,3.37
2019-02-02T04:12:29.476Z,3.42
2019-02-02T04:13:29.472Z,3.42
2019-02-02T04:14:29.707Z,3.44
2019-02-02T04:15:29.618Z,3.4
2019-02-02T04:16:29.498Z,3.48
2019-02-02T04:17:29.521Z,3.47
2019-02-02T04:18:29.639Z,3.41
2019-02-02T04:19:29.137Z,3.48
2019-02-02T04:20:29.381Z,3.42
2019-02-02T04:21:29.608Z,3.41
2019-02-02T04:22:29.611Z,3.44
2019-02-02T04:23:29.587Z,3.41
2019-02-02T04:24:29.595Z,3.44
2019-02-02T04:25:29.326Z,3.34
2019-02-02T04:26:29.567Z,3.26
2019-02-02T04:27:29.542Z,3.32
2019-02-02T04:28:29.294Z,3.23
2019-02-02T04:29:29.534Z,3.25
2019-02-02T04:30:29.272Z,3.25
2019-02-02T04:31:29.506Z,3.31
2019-02-02T04:32:29.263Z,3.34
2019-02-02T04:33:29.250Z,3.4
2019-02-02T04:34:29.223Z,3.36
2019-02-02T04:35:29.491Z,3.29
2019-02-02T04:36:29.454Z,3.32
2019-02-02T04:37:29.437Z,3.32
2019-02-02T04:38:29.180Z,3.32
2019-02-02T04:39:29.420Z,3.4
2019-02-02T04:40:29.155Z,3.42
2019-02-02T04:41:29.395Z,3.45
2019-02-02T04:42:29.385Z,3.41
2019-02-02T04:43:29.121Z,3.5
2019-02-02T04:44:29.125Z,3.48
2019-02-02T04:45:29.353Z,3.47
2019-02-02T04:46:29.091Z,3.55
2019-02-02T04:47:28.834Z,3.5
2019-02-02T04:48:32.178Z,3.47
2019-02-02T04:49:29.322Z,3.48
2019-02-02T04:50:29.302Z,3.56
2019-02-02T04:51:29.041Z,3.47
2019-02-02T04:52:29.039Z,3.45
2019-02-02T04:53:29.276Z,3.51
2019-02-02T04:54:29.001Z,3.45
2019-02-02T04:55:28.985Z,3.47
2019-02-02T04:56:28.985Z,3.5
2019-02-02T04:57:28.980Z,3.53
2019-02-02T04:58:29.227Z,3.62
2019-02-02T04:59:34.053Z,3.59
2019-02-02T05:00:29.067Z,3.51
2019-02-02T05:01:29.186Z,3.6
2019-02-02T05:02:30.417Z,3.62
2019-02-02T05:03:29.159Z,3.63
2019-02-02T05:04:29.148Z,3.62
2019-02-02T05:05:28.796Z,3.65
2019-02-02T05:06:29.258Z,3.66
2019-02-02T05:07:28.622Z,3.68
2019-02-02T05:08:29.139Z,3.6
2019-02-02T05:09:29.092Z,3.51
2019-02-02T05:10:29.103Z,3.44
2019-02-02T05:11:28.828Z,3.51
2019-02-02T05:12:28.825Z,3.48
2019-02-02T05:13:28.830Z,3.58
2019-02-02T05:14:29.037Z,3.6
2019-02-02T05:15:28.771Z,3.5
2019-02-02T05:16:28.788Z,3.59
2019-02-02T05:17:29.022Z,3.63
2019-02-02T05:18:28.998Z,3.63
2019-02-02T05:19:28.986Z,3.78
2019-02-02T05:20:28.975Z,3.69
2019-02-02T05:21:28.983Z,3.8
2019-02-02T05:22:28.714Z,3.8
2019-02-02T05:23:28.982Z,3.81
2019-02-02T05:24:28.941Z,3.91
2019-02-02T05:25:28.712Z,3.83
2019-02-02T05:26:28.919Z,3.8
2019-02-02T05:27:28.925Z,3.88
2019-02-02T05:28:28.893Z,3.88
2019-02-02T05:29:28.641Z,3.86
2019-02-02T05:30:28.631Z,3.91
2019-02-02T05:31:28.623Z,3.91
2019-02-02T05:32:28.363Z,3.92
2019-02-02T05:33:28.606Z,3.8
2019-02-02T05:34:28.849Z,3.84
2019-02-02T05:35:28.845Z,3.8
2019-02-02T05:36:28.826Z,3.76
2019-02-02T05:37:28.843Z,3.77
2019-02-02T05:38:28.809Z,3.84
2019-02-02T05:39:28.286Z,3.76
2019-02-02T05:40:28.545Z,3.84
2019-02-02T05:41:28.293Z,3.83
2019-02-02T05:42:28.762Z,3.78
2019-02-02T05:43:28.757Z,3.81
2019-02-02T05:44:28.733Z,3.73
2019-02-02T05:45:28.739Z,3.76
2019-02-02T05:46:28.716Z,3.7
2019-02-02T05:47:28.700Z,3.74
2019-02-02T05:48:28.686Z,3.74
2019-02-02T05:49:28.449Z,3.69
2019-02-02T05:50:28.676Z,3.68
2019-02-02T05:51:28.430Z,3.69
2019-02-02T05:52:28.676Z,3.62
2019-02-02T05:53:28.660Z,3.66
2019-02-02T05:54:28.641Z,3.63
2019-02-02T05:55:28.398Z,3.6
2019-02-02T05:56:28.717Z,3.59
2019-02-02T05:57:28.375Z,3.69
2019-02-02T05:58:28.630Z,3.69
2019-02-02T05:59:28.332Z,3.73
2019-02-02T06:00:28.586Z,3.68
2019-02-02T06:01:30.016Z,3.7
2019-02-02T06:02:28.305Z,3.73
2019-02-02T06:03:28.546Z,3.74
2019-02-02T06:04:28.551Z,3.74
2019-02-02T06:05:28.288Z,3.66
2019-02-02T06:06:28.526Z,3.66
2019-02-02T06:07:28.500Z,3.76
2019-02-02T06:08:28.498Z,3.69
2019-02-02T06:09:28.243Z,3.62
2019-02-02T06:10:28.234Z,3.62
2019-02-02T06:11:29.370Z,3.63
2019-02-02T06:12:28.203Z,3.59
2019-02-02T06:13:28.450Z,3.56
2019-02-02T06:14:28.437Z,3.48
2019-02-02T06:15:30.955Z,3.47
2019-02-02T06:16:28.414Z,3.47
2019-02-02T06:17:28.401Z,3.55
2019-02-02T06:18:28.391Z,3.45
2019-02-02T06:19:28.377Z,3.51
2019-02-02T06:20:28.404Z,3.5
2019-02-02T06:21:28.369Z,3.59
2019-02-02T06:22:28.355Z,3.56
2019-02-02T06:23:28.109Z,3.62
2019-02-02T06:24:28.342Z,3.65
2019-02-02T06:25:28.327Z,3.59
2019-02-02T06:26:28.311Z,3.58
2019-02-02T06:27:28.335Z,3.6
2019-02-02T06:28:28.040Z,3.55
2019-02-02T06:29:28.295Z,3.59
2019-02-02T06:30:28.299Z,3.62
2019-02-02T06:31:28.262Z,3.62
2019-02-02T06:32:28.287Z,3.62
2019-02-02T06:33:28.259Z,3.63
2019-02-02T06:34:27.738Z,3.65
2019-02-02T06:35:27.984Z,3.69
2019-02-02T06:36:27.961Z,3.69
2019-02-02T06:37:28.198Z,3.74
2019-02-02T06:38:27.959Z,3.69
2019-02-02T06:39:28.190Z,3.8
2019-02-02T06:40:27.677Z,3.68
2019-02-02T06:41:27.916Z,3.76
2019-02-02T06:42:28.145Z,3.74
2019-02-02T06:43:30.206Z,3.63
2019-02-02T06:44:28.134Z,3.62
2019-02-02T06:45:28.139Z,3.69
2019-02-02T06:46:28.216Z,3.68
2019-02-02T06:47:27.848Z,3.66
2019-02-02T06:48:28.098Z,3.69
2019-02-02T06:49:27.853Z,3.7
2019-02-02T06:50:28.091Z,3.7
2019-02-02T06:51:28.050Z,3.78
2019-02-02T06:52:28.120Z,3.69
2019-02-02T06:53:28.041Z,3.77
2019-02-02T06:54:30.721Z,3.77
2019-02-02T06:55:27.769Z,3.77
2019-02-02T06:56:27.757Z,3.7
2019-02-02T06:57:28.008Z,3.66
2019-02-02T06:58:27.752Z,3.69
2019-02-02T06:59:27.729Z,3.66
2019-02-02T07:00:31.079Z,3.65
2019-02-02T07:01:27.980Z,3.58
2019-02-02T07:02:27.982Z,3.53
2019-02-02T07:03:27.933Z,3.48
2019-02-02T07:04:27.685Z,3.51
2019-02-02T07:05:27.681Z,3.55
2019-02-02T07:06:27.910Z,3.51
2019-02-02T07:07:27.426Z,3.5
2019-02-02T07:08:27.921Z,3.51
2019-02-02T07:09:27.624Z,3.37
2019-02-02T07:10:27.888Z,3.56
2019-02-02T07:11:27.366Z,3.47
2019-02-02T07:12:27.345Z,3.53
2019-02-02T07:13:27.845Z,3.4
2019-02-02T07:14:27.361Z,3.36
2019-02-02T07:15:27.580Z,3.37
2019-02-02T07:16:27.795Z,3.4
2019-02-02T07:17:27.547Z,3.42
2019-02-02T07:18:27.551Z,3.44
2019-02-02T07:19:29.164Z,3.51
2019-02-02T07:20:27.521Z,3.34
2019-02-02T07:21:27.502Z,3.48
2019-02-02T07:22:27.739Z,3.44
2019-02-02T07:23:27.487Z,3.42
2019-02-02T07:24:27.232Z,3.4
2019-02-02T07:25:27.481Z,3.45
2019-02-02T07:26:27.698Z,3.37
2019-02-02T07:27:27.581Z,3.5
2019-02-02T07:28:27.688Z,3.44
2019-02-02T07:29:27.659Z,3.51
2019-02-02T07:30:33.540Z,3.56
2019-02-02T07:31:27.386Z,3.5
2019-02-02T07:32:27.386Z,3.53
2019-02-02T07:33:27.619Z,3.48
2019-02-02T07:34:27.620Z,3.55
2019-02-02T07:35:27.356Z,3.6
2019-02-02T07:36:27.464Z,3.63
2019-02-02T07:37:27.340Z,3.59
2019-02-02T07:38:27.344Z,3.63
2019-02-02T07:39:27.315Z,3.6
2019-02-02T07:40:27.297Z,3.68
2019-02-02T07:41:27.548Z,3.6
2019-02-02T07:42:27.026Z,3.62
2019-02-02T07:43:27.518Z,3.66
2019-02-02T07:44:27.281Z,3.66
2019-02-02T07:45:26.994Z,3.66
2019-02-02T07:46:26.991Z,3.69
2019-02-02T07:47:27.268Z,3.68
2019-02-02T07:48:27.497Z,3.69
2019-02-02T07:49:27.218Z,3.7
2019-02-02T07:50:27.470Z,3.69
2019-02-02T07:51:27.442Z,3.7
2019-02-02T07:52:27.183Z,3.65
2019-02-02T07:53:27.182Z,3.66
2019-02-02T07:54:27.410Z,3.68
2019-02-02T07:55:27.520Z,3.74
2019-02-02T07:56:27.469Z,3.76
2019-02-02T07:57:27.502Z,3.68
2019-02-02T07:58:27.109Z,3.69
2019-02-02T07:59:27.107Z,3.69
2019-02-02T08:00:27.108Z,3.65
2019-02-02T08:01:27.326Z,3.69
2019-02-02T08:02:27.070Z,3.69
2019-02-02T08:03:26.820Z,3.69
2019-02-02T08:04:27.317Z,3.66
2019-02-02T08:05:27.055Z,3.63
2019-02-02T08:06:27.295Z,3.63
2019-02-02T08:07:27.264Z,3.59
2019-02-02T08:08:27.251Z,3.58
2019-02-02T08:09:26.997Z,3.62
2019-02-02T08:10:27.248Z,3.58
2019-02-02T08:11:27.251Z,3.51
2019-02-02T08:12:26.985Z,3.56
2019-02-02T08:13:27.218Z,3.62
2019-02-02T08:14:26.964Z,3.6
2019-02-02T08:15:26.941Z,3.56
2019-02-02T08:16:27.185Z,3.6
2019-02-02T08:17:26.932Z,3.58
2019-02-02T08:18:26.908Z,3.59
2019-02-02T08:19:29.862Z,3.58
2019-02-02T08:20:26.912Z,3.56
2019-02-02T08:21:27.117Z,3.65
2019-02-02T08:22:26.877Z,3.69
2019-02-02T08:23:26.865Z,3.74
2019-02-02T08:24:27.099Z,3.81
2019-02-02T08:25:26.954Z,3.76
2019-02-02T08:26:26.820Z,3.78
2019-02-02T08:27:27.071Z,3.88
2019-02-02T08:28:26.555Z,3.84
2019-02-02T08:29:27.039Z,3.86
2019-02-02T08:30:26.801Z,3.81
2019-02-02T08:31:26.773Z,3.92
2019-02-02T08:32:27.023Z,3.96
2019-02-02T08:33:26.507Z,4.02
2019-02-02T08:34:26.761Z,4.05
2019-02-02T08:35:26.768Z,4.05
2019-02-02T08:36:26.854Z,4.1
2019-02-02T08:37:26.982Z,4.04
2019-02-02T08:38:26.958Z,4.14
2019-02-02T08:39:33.671Z,4.08
2019-02-02T08:40:26.950Z,4.08
2019-02-02T08:41:26.933Z,4.16
2019-02-02T08:42:26.931Z,4.17
2019-02-02T08:43:26.904Z,4.17
2019-02-02T08:44:29.427Z,4.1
2019-02-02T08:45:26.883Z,4.14
2019-02-02T08:46:26.381Z,4.05
2019-02-02T08:47:26.620Z,4.02
2019-02-02T08:48:26.628Z,3.98
2019-02-02T08:49:26.603Z,4.04
2019-02-02T08:50:26.848Z,4.05
2019-02-02T08:51:26.596Z,3.99
2019-02-02T08:52:26.572Z,4.05
2019-02-02T08:53:26.939Z,4.08
2019-02-02T08:54:26.810Z,4.05
2019-02-02T08:55:26.635Z,4.04
2019-02-02T08:56:26.613Z,4.12
2019-02-02T08:57:26.649Z,4.26
2019-02-02T08:58:26.779Z,4.31
2019-02-02T08:59:26.502Z,4.3
2019-02-02T09:00:26.743Z,4.26
2019-02-02T09:01:26.735Z,4.12
2019-02-02T09:02:26.733Z,4.04
2019-02-02T09:03:26.935Z,4.08
2019-02-02T09:04:26.549Z,4.16
2019-02-02T09:05:26.714Z,4.17
2019-02-02T09:06:38.099Z,4.2
2019-02-02T09:07:26.430Z,4.3
2019-02-02T09:08:26.230Z,4.26
2019-02-02T09:09:26.441Z,4.23
2019-02-02T09:10:26.645Z,4.22
2019-02-02T09:11:26.392Z,4.34
2019-02-02T09:12:26.692Z,4.41
2019-02-02T09:13:26.377Z,4.52
2019-02-02T09:14:26.474Z,4.56
2019-02-02T09:15:26.605Z,4.66
2019-02-02T09:16:26.361Z,4.66
2019-02-02T09:17:26.587Z,4.73
2019-02-02T09:18:26.581Z,4.86
2019-02-02T09:19:26.574Z,4.77
2019-02-02T09:20:26.307Z,4.7
2019-02-02T09:21:26.553Z,4.77
2019-02-02T09:22:26.047Z,4.62
2019-02-02T09:23:26.523Z,4.59
2019-02-02T09:24:26.518Z,4.58
2019-02-02T09:25:26.529Z,4.74
2019-02-02T09:26:26.514Z,4.75
2019-02-02T09:27:26.236Z,4.77
2019-02-02T09:28:26.507Z,4.86
2019-02-02T09:29:26.474Z,4.9
2019-02-02T09:30:26.566Z,4.9
2019-02-02T09:31:26.448Z,5.02
2019-02-02T09:32:26.202Z,5.04
2019-02-02T09:33:26.182Z,5.14
2019-02-02T09:34:28.683Z,5.15
2019-02-02T09:35:26.280Z,5.28
2019-02-02T09:36:25.907Z,5.3
2019-02-02T09:37:26.149Z,5.29
2019-02-02T09:38:26.143Z,5.36
2019-02-02T09:39:26.382Z,5.43
2019-02-02T09:40:28.141Z,5.39
2019-02-02T09:41:26.118Z,5.44
2019-02-02T09:42:26.102Z,5.48
2019-02-02T09:43:26.095Z,5.61
2019-02-02T09:44:26.080Z,5.64
2019-02-02T09:45:26.444Z,5.59
2019-02-02T09:46:26.072Z,5.68
2019-02-02T09:47:26.082Z,5.82
2019-02-02T09:48:26.304Z,5.86
2019-02-02T09:49:26.315Z,5.82
2019-02-02T09:50:25.795Z,5.82
2019-02-02T09:51:26.271Z,5.94
2019-02-02T09:52:26.034Z,5.91
2019-02-02T09:53:28.975Z,5.97
2019-02-02T09:54:31.634Z,6.01
2019-02-02T09:55:26.023Z,6.09
2019-02-02T09:56:25.992Z,6.14
2019-02-02T09:57:27.732Z,6.09
2019-02-02T09:58:26.249Z,6.22
2019-02-02T09:59:26.226Z,6.08
2019-02-02T10:00:26.218Z,6.14
2019-02-02T10:01:32.844Z,6.09
2019-02-02T10:02:29.525Z,6.16
2019-02-02T10:03:25.926Z,6.19
2019-02-02T10:04:26.176Z,6.2
2019-02-02T10:05:25.682Z,6.19
2019-02-02T10:06:25.680Z,6.27
2019-02-02T10:07:25.918Z,6.28
2019-02-02T10:08:28.136Z,6.28
2019-02-02T10:09:26.129Z,6.22
2019-02-02T10:10:25.638Z,6.36
2019-02-02T10:11:26.123Z,6.36
2019-02-02T10:12:26.111Z,6.42
2019-02-02T10:13:25.867Z,6.33
2019-02-02T10:14:25.591Z,6.38
2019-02-02T10:15:25.833Z,6.36
2019-02-02T10:16:26.068Z,6.44
2019-02-02T10:17:26.073Z,6.48
2019-02-02T10:18:26.064Z,6.46
2019-02-02T10:19:25.796Z,6.48
2019-02-02T10:20:25.796Z,6.57
2019-02-02T10:21:25.791Z,6.51
2019-02-02T10:22:25.786Z,6.59
2019-02-02T10:23:25.527Z,6.6
2019-02-02T10:24:28.471Z,6.6
2019-02-02T10:25:25.519Z,6.75
2019-02-02T10:26:25.774Z,6.75
2019-02-02T10:27:25.503Z,6.72
2019-02-02T10:28:25.746Z,6.84
2019-02-02T10:29:25.485Z,6.84
2019-02-02T10:30:27.232Z,6.88
2019-02-02T10:31:25.988Z,6.89
2019-02-02T10:32:26.006Z,6.88
2019-02-02T10:33:25.709Z,6.88
2019-02-02T10:34:25.458Z,6.89
2019-02-02T10:35:25.690Z,6.88
2019-02-02T10:36:25.689Z,6.96
2019-02-02T10:37:25.927Z,7.02
2019-02-02T10:38:25.922Z,7.07
2019-02-02T10:39:25.702Z,7.13
2019-02-02T10:40:25.897Z,7.05
2019-02-02T10:41:25.889Z,7.07
2019-02-02T10:42:25.635Z,7.03
2019-02-02T10:43:25.636Z,7.07
2019-02-02T10:44:25.635Z,7.1
2019-02-02T10:45:25.935Z,7.03
2019-02-02T10:46:25.866Z,7.05
2019-02-02T10:47:25.871Z,7.02
2019-02-02T10:48:25.846Z,7.02
2019-02-02T10:49:25.363Z,7.15
2019-02-02T10:50:25.585Z,7.13
2019-02-02T10:51:27.707Z,7.14
2019-02-02T10:52:25.820Z,7.18
2019-02-02T10:53:25.560Z,7.21
2019-02-02T10:54:25.870Z,7.21
2019-02-02T10:55:25.813Z,7.14
2019-02-02T10:56:25.786Z,7.17
2019-02-02T10:57:25.782Z,7.17
2019-02-02T10:58:25.531Z,7.13
2019-02-02T10:59:25.513Z,7.13
2019-02-02T11:00:25.760Z,7.23
2019-02-02T11:01:25.753Z,7.29
2019-02-02T11:02:25.559Z,7.29
2019-02-02T11:03:25.759Z,7.43
2019-02-02T11:04:25.681Z,7.51
2019-02-02T11:05:25.865Z,7.54
2019-02-02T11:06:25.823Z,7.61
2019-02-02T11:07:25.464Z,7.8
2019-02-02T11:08:25.780Z,7.83
2019-02-02T11:09:25.949Z,7.87
2019-02-02T11:10:25.595Z,7.91
2019-02-02T11:11:25.953Z,7.93
2019-02-02T11:12:25.719Z,7.94
2019-02-02T11:13:25.276Z,7.94
2019-02-02T11:14:25.652Z,8
2019-02-02T11:15:26.068Z,8.01
2019-02-02T11:16:25.561Z,8.03
2019-02-02T11:17:25.835Z,8.05
2019-02-02T11:18:25.577Z,8.05
2019-02-02T11:19:25.520Z,8.05
2019-02-02T11:20:25.785Z,8.12
2019-02-02T11:21:25.714Z,8.23
2019-02-02T11:22:25.788Z,8.15
2019-02-02T11:23:25.902Z,8.33
2019-02-02T11:24:30.044Z,8.28
2019-02-02T11:25:25.906Z,8.26
2019-02-02T11:26:25.887Z,8.37
2019-02-02T11:27:25.418Z,8.28
2019-02-02T11:28:25.796Z,8.44
2019-02-02T11:29:25.584Z,8.41
2019-02-02T11:30:25.801Z,8.38
2019-02-02T11:31:25.546Z,8.3
2019-02-02T11:32:25.297Z,8.27
2019-02-02T11:33:25.570Z,8.01
2019-02-02T11:34:25.283Z,7.88
2019-02-02T11:35:25.532Z,7.85
2019-02-02T11:36:25.524Z,7.82
2019-02-02T11:37:25.687Z,7.82
2019-02-02T11:38:25.276Z,7.61
2019-02-02T11:39:25.029Z,7.6
2019-02-02T11:40:25.571Z,7.63
2019-02-02T11:41:25.529Z,7.58
2019-02-02T11:42:25.504Z,7.67
2019-02-02T11:43:25.478Z,7.76
2019-02-02T11:44:25.475Z,7.8
2019-02-02T11:45:25.240Z,7.94
2019-02-02T11:46:25.469Z,7.9
2019-02-02T11:47:25.459Z,7.88
2019-02-02T11:48:25.441Z,8.05
2019-02-02T11:49:28.722Z,8.06
2019-02-02T11:50:25.433Z,8.18
2019-02-02T11:51:24.936Z,8.19
2019-02-02T11:52:28.186Z,8.38
2019-02-02T11:53:25.191Z,8.44
2019-02-02T11:54:25.423Z,8.41
2019-02-02T11:55:25.406Z,8.6
2019-02-02T11:56:25.413Z,8.56
2019-02-02T11:57:25.157Z,8.61
2019-02-02T11:58:25.190Z,8.66
2019-02-02T11:59:25.512Z,8.76
2019-02-02T12:00:25.127Z,8.71
2019-02-02T12:01:25.370Z,8.79
2019-02-02T12:02:25.130Z,8.89
2019-02-02T12:03:25.359Z,9.02
2019-02-02T12:04:25.348Z,9.08
2019-02-02T12:05:25.360Z,9.14
2019-02-02T12:06:25.095Z,9.16
2019-02-02T12:07:25.336Z,9.31
2019-02-02T12:08:25.335Z,9.46
2019-02-02T12:09:24.844Z,9.41
2019-02-02T12:10:25.377Z,9.46
2019-02-02T12:11:25.313Z,9.58
2019-02-02T12:12:25.083Z,9.59
2019-02-02T12:13:25.310Z,9.5
2019-02-02T12:14:25.291Z,9.65
2019-02-02T12:15:24.803Z,9.58
2019-02-02T12:16:25.342Z,9.44
2019-02-02T12:17:25.035Z,9.32
2019-02-02T12:18:25.283Z,9.34
2019-02-02T12:19:25.065Z,9.32
2019-02-02T12:20:25.014Z,9.37
2019-02-02T12:21:25.257Z,9.36
2019-02-02T12:22:25.249Z,9.39
2019-02-02T12:23:25.285Z,9.37
2019-02-02T12:24:25.254Z,9.44
2019-02-02T12:25:25.255Z,9.37
2019-02-02T12:26:25.252Z,9.47
2019-02-02T12:27:25.307Z,9.58
2019-02-02T12:28:25.233Z,9.56
2019-02-02T12:29:25.258Z,9.55
2019-02-02T12:30:25.225Z,9.61
2019-02-02T12:31:25.217Z,9.62
2019-02-02T12:32:31.704Z,9.65
2019-02-02T12:33:28.314Z,9.72
2019-02-02T12:34:25.261Z,9.73
2019-02-02T12:35:25.031Z,9.72
2019-02-02T12:36:25.214Z,9.68
2019-02-02T12:37:24.956Z,9.65
2019-02-02T12:38:25.210Z,9.72
2019-02-02T12:39:24.690Z,9.66
2019-02-02T12:40:24.754Z,9.64
2019-02-02T12:41:25.214Z,9.64
2019-02-02T12:42:25.250Z,9.65
2019-02-02T12:43:25.280Z,9.61
2019-02-02T12:44:25.181Z,9.54
2019-02-02T12:45:25.154Z,9.55
2019-02-02T12:46:24.913Z,9.58
2019-02-02T12:47:25.754Z,9.61
2019-02-02T12:48:25.164Z,9.62
2019-02-02T12:49:25.174Z,9.65
2019-02-02T12:50:25.153Z,9.73
2019-02-02T12:51:25.155Z,9.84
2019-02-02T12:52:27.946Z,9.86
2019-02-02T12:53:24.880Z,9.82
2019-02-02T12:54:25.129Z,9.91
2019-02-02T12:55:28.347Z,9.87
2019-02-02T12:56:24.611Z,9.92
2019-02-02T12:57:25.091Z,9.87
2019-02-02T12:58:24.952Z,9.84
2019-02-02T12:59:24.856Z,9.89
2019-02-02T13:00:24.934Z,10.01
2019-02-02T13:01:24.847Z,10.05
2019-02-02T13:02:37.737Z,9.95
2019-02-02T13:03:24.583Z,10.01
2019-02-02T13:04:24.574Z,9.98
2019-02-02T13:05:24.829Z,9.92
2019-02-02T13:06:25.079Z,9.84
2019-02-02T13:07:25.069Z,9.83
2019-02-02T13:08:24.831Z,9.77
2019-02-02T13:09:24.927Z,9.69
2019-02-02T13:10:27.321Z,9.64
2019-02-02T13:11:26.453Z,9.54
2019-02-02T13:12:24.861Z,9.44
2019-02-02T13:13:24.873Z,9.43
2019-02-02T13:14:25.040Z,9.37
2019-02-02T13:15:24.843Z,9.37
2019-02-02T13:16:25.070Z,9.41
2019-02-02T13:17:25.034Z,9.43
2019-02-02T13:18:24.775Z,9.4
2019-02-02T13:19:24.763Z,9.4
2019-02-02T13:20:25.179Z,9.41
2019-02-02T13:21:25.017Z,9.48